ADDS METAR Data INFO
IDs: Format: Raw Decoded Include TAF

Data at: 1049 UTC 19 Oct 2017

KJAN 190954Z AUTO 00000KT 10SM CLR 10/08 A3019 RMK AO2 SLP220 T01000083 $
KJAN 190854Z AUTO 00000KT 10SM CLR 10/08 A3018 RMK AO2 SLP218 T01000078 56005 $
KJAN 190754Z AUTO 00000KT 10SM CLR 11/08 A3019 RMK AO2 SLP219 T01060083 $
KJAN 190654Z AUTO 11003KT 10SM CLR 11/09 A3019 RMK AO2 SLP220 T01060089 $
KJAN 190554Z AUTO 00000KT 10SM CLR 13/09 A3020 RMK AO2 SLP223 T01280089 10183 20111 402670094 58004 $
KJAN 190454Z AUTO 16003KT 10SM CLR 12/09 A3021 RMK AO2 SLP228 T01220089
KJAN 190354Z 11005KT 10SM CLR 13/09 A3022 RMK AO2 SLP230 T01330094
KJAN 190254Z 13003KT 10SM CLR 12/09 A3021 RMK AO2 SLP227 T01220094 51011
KJAN 190154Z 00000KT 10SM CLR 16/10 A3021 RMK AO2 SLP226 T01560100
KJAN 190054Z 00000KT 10SM CLR 15/10 A3020 RMK AO2 SLP226 T01500100
KJAN 182354Z 10005KT 10SM CLR 18/11 A3018 RMK AO2 SLP217 T01780111 10267 20178 53005
KJAN 182254Z 09004KT 10SM CLR 24/09 A3017 RMK AO2 SLP213 T02390094
KJAN 182154Z 08007KT 10SM CLR 26/09 A3016 RMK AO2 SLP209 T02560089
KJAN 182054Z 06003KT 10SM CLR 26/09 A3016 RMK AO2 SLP211 T02610089 56023
KJAN 181954Z VRB04KT 10SM CLR 26/09 A3017 RMK AO2 SLP214 T02560089
KJAN 181854Z 11004KT 10SM CLR 24/09 A3020 RMK AO2 SLP223 T02440094
KJAN 181754Z 10007KT 10SM CLR 24/09 A3023 RMK AO2 SLP234 T02440094 10244 20094 58010
KJAN 181654Z 16007KT 10SM CLR 23/09 A3025 RMK AO2 SLP240 T02330089
KJAN 181554Z 13009KT 10SM CLR 22/08 A3026 RMK AO2 SLP243 T02170078
KJAN 181454Z 12011KT 10SM CLR 19/08 A3026 RMK AO2 SLP245 T01940078 53015
KJAN 181354Z 13007KT 10SM CLR 17/09 A3024 RMK AO2 SLP238 T01670089
KJAN 181254Z 15003KT 10SM CLR 12/09 A3023 RMK AO2 SLP235 T01220089
KJAN 181154Z 00000KT 10SM CLR 09/07 A3022 RMK AO2 SLP231 7//// T00940072 10139 20094 50003
KJAN 181054Z 18003KT 10SM CLR 10/08 A3022 RMK AO2 SLP231 T01000078
KJAN 180954Z AUTO 00000KT 10SM CLR 11/08 A3021 RMK AO2 SLP228 T01110083
KJAN 180854Z AUTO 00000KT 10SM CLR 12/09 A3021 RMK AO2 SLP227 T01220089 53001
KJAN 180754Z AUTO 00000KT 10SM CLR 10/08 A3021 RMK AO2 SLP227 T01000078
KJAN 180654Z AUTO 11004KT 10SM CLR 11/08 A3020 RMK AO2 SLP225 T01060083
KJAN 180554Z AUTO 10004KT 10SM CLR 13/09 A3021 RMK AO2 SLP226 T01330094 10200 20133 402560094 58003
KJAN 180454Z AUTO 09005KT 10SM CLR 14/09 A3021 RMK AO2 SLP229 T01440094
KJAN 180354Z AUTO 09006KT 10SM CLR 16/10 A3021 RMK AO2 SLP228 T01560100
KJAN 180254Z 09006KT 10SM CLR 16/10 A3021 RMK AO2 SLPNO T01610100 53014
KJAN 180154Z 09006KT 10SM CLR 17/11 A3020 RMK AO2 SLP225 T01670106
KJAN 180054Z 08005KT 10SM CLR 17/11 A3019 RMK AO2 SLP220 T01720111
KJAN 172354Z 07005KT 10SM CLR 19/11 A3017 RMK AO2 SLP216 T01940106 10256 20194 55001
KJAN 172254Z 09005KT 10SM CLR 23/11 A3017 RMK AO2 SLP213 T02280106